Latest Coastal Weather Observations for Portland Harbour

IDS60701

Issued at 3:15 pm CST Friday 1 August 2014 (issued every 10 minutes, with the page automatically refreshed every 10 minutes)

About coastal observations | Map of coastal stations | Coastal observations for SA | Marine services | Other Formats
Station Details ID: 090192 Name: PORTLAND NTC AWS Lat: -38.34 Lon: 141.61 Height: 0.0 m
Data from the previous 72 hours. | See also: Recent months for locations in South Australia
Date/Time
CST
Temp

°C
Wind Pressure Rain
since 9am
mm
Weather Cloud Vis
km
Sea
Height
m
Swell
Dir
 
Speed
knots
Gust
knots
hPa Trend Height
m
Period
s
Dir
01/03:00pm 9.1 SSW 23 38 1015.4 - - - - - - - - -
01/02:40pm 10.3 SW 20 30 1014.6 - - - - - - - - -
01/02:30pm 10.2 SW 19 28 1014.2 - - - - - - - - -
01/02:00pm 9.6 SSW 18 25 1013.3 - - - - - - - - -
01/01:31pm 8.8 SSW 29 39 1012.8 - - - - - - - - -
01/01:30pm 8.6 SSW 30 39 1012.9 - - - - - - - - -
01/01:00pm 8.5 SSW 26 41 1012.4 - - - - - - - - -
01/12:30pm 9.9 SSW 23 35 1011.6 - - - - - - - - -
01/12:00pm 9.5 SSW 28 43 1011.2 - - - - - - - - -
01/11:56am 10.0 SSW 27 43 1011.1 - - - - - - - - -
01/11:30am 10.1 SW 21 33 1010.3 - - - - - - - - -
01/11:00am 9.0 SSW 22 33 1009.6 - - - - - - - - -
01/10:30am 8.3 SSW 25 38 1008.6 - - - - - - - - -
01/10:28am 9.1 SSW 20 37 1008.6 - - - - - - - - -
01/10:23am 8.8 WSW 17 21 1008.0 - - - - - - - - -
01/10:00am 10.8 SW 20 32 1007.1 - - - - - - - - -
01/09:39am 10.7 SSW 21 32 1006.3 - - - - - - - - -
01/09:30am 10.8 SSW 21 29 1005.7 - - - - - - - - -
01/09:09am 10.5 SSW 21 32 1005.2 - - - - - - - - -
01/09:00am 10.5 SSW 22 30 1004.9 - - - - - - - - -
01/08:30am 10.1 SSW 20 31 1004.1 - - - - - - - - -
01/08:29am 10.0 SSW 20 31 1004.1 - - - - - - - - -
01/08:27am 9.9 SSW 19 25 1004.1 - - - - - - - - -
01/08:00am 8.0 S 24 38 1003.3 - - - - - - - - -
01/07:54am 8.4 S 27 38 1003.7 - - - - - - - - -
01/07:46am 8.6 SW 20 35 1003.1 - - - - - - - - -
01/07:30am 8.5 SW 17 27 1002.3 - - - - - - - - -
01/07:00am 7.9 SW 21 34 1001.5 - - - - - - - - -
01/06:47am 8.2 SW 25 45 1001.0 - - - - - - - - -
01/06:44am 8.3 SW 22 33 1000.8 - - - - - - - - -
01/06:42am 8.5 SW 26 33 1000.8 - - - - - - - - -
01/06:36am 8.8 W 15 27 1000.3 - - - - - - - - -
01/06:30am 8.4 W 14 24 1000.2 - - - - - - - - -
01/06:20am 8.2 W 11 21 1000.1 - - - - - - - - -
01/06:00am 8.9 SW 21 31 999.8 - - - - - - - - -
01/05:59am 8.9 SW 21 31 999.8 - - - - - - - - -
01/05:53am 9.5 WSW 21 25 999.9 - - - - - - - - -
01/05:40am 9.1 W 16 32 999.5 - - - - - - - - -
01/05:30am 9.0 W 13 22 999.4 - - - - - - - - -
01/05:00am 7.4 WNW 9 14 999.3 - - - - - - - - -
01/04:38am 7.2 W 15 28 999.3 - - - - - - - - -
01/04:30am 7.1 W 10 28 999.8 - - - - - - - - -
01/04:03am 6.1 W 16 29 999.7 - - - - - - - - -
01/04:00am 5.5 W 15 24 999.9 - - - - - - - - -
01/03:30am 6.6 NNW 17 25 998.3 - - - - - - - - -
01/03:00am 6.5 NNW 15 24 999.0 - - - - - - - - -
01/02:30am 7.1 NNW 18 24 998.8 - - - - - - - - -
01/02:00am 7.1 NNW 13 19 999.6 - - - - - - - - -
01/01:30am 7.2 NW 10 17 999.8 - - - - - - - - -
01/01:00am 7.8 NW 11 20 1000.0 - - - - - - - - -
01/12:33am 9.6 W 16 26 999.8 - - - - - - - - -
01/12:30am 9.7 W 17 26 999.8 - - - - - - - - -
01/12:23am 9.6 W 15 25 999.9 - - - - - - - - -
01/12:00am 9.2 W 14 24 999.8 - - - - - - - - -
 
Date/Time
CST
Temp

°C
Wind Pressure Rain
since 9am
mm
Weather Cloud Vis
km
Sea
Height
m
Swell
Dir
 
Speed
knots
Gust
knots
hPa Trend Height
m
Period
s
Dir
31/11:41pm 9.3 W 20 33 999.7 - - - - - - - - -
31/11:30pm 9.2 W 20 28 1000.1 - - - - - - - - -
31/11:18pm 9.3 W 15 32 1000.2 - - - - - - - - -
31/11:00pm 9.0 W 14 21 1000.3 - - - - - - - - -
31/10:40pm 7.7 WNW 19 32 1000.2 - - - - - - - - -
31/10:30pm 7.8 NW 8 13 1000.0 - - - - - - - - -
31/10:00pm 7.7 WNW 18 25 1000.5 - - - - - - - - -
31/09:58pm 8.1 W 15 27 1000.7 - - - - - - - - -
31/09:30pm 8.6 W 13 22 1000.2 - - - - - - - - -
31/09:04pm 9.0 W 15 32 999.9 - - - - - - - - -
31/09:00pm 8.5 W 13 20 1000.1 - - - - - - - - -
31/08:30pm 8.3 W 19 31 1000.3 - - - - - - - - -
31/08:19pm 8.7 W 16 27 1000.5 - - - - - - - - -
31/08:00pm 8.6 WSW 16 22 1000.1 - - - - - - - - -
31/07:32pm 9.2 W 15 34 999.8 - - - - - - - - -
31/07:30pm 10.0 W 14 23 999.3 - - - - - - - - -
31/07:00pm 10.4 WSW 20 31 998.9 - - - - - - - - -
31/06:34pm 10.5 W 18 29 998.4 - - - - - - - - -
31/06:30pm 10.4 W 16 26 998.2 - - - - - - - - -
31/06:11pm 10.2 W 16 28 998.0 - - - - - - - - -
31/06:00pm 10.0 W 14 21 997.8 - - - - - - - - -
31/05:44pm 9.9 W 17 28 997.9 - - - - - - - - -
31/05:30pm 8.7 W 17 26 997.8 - - - - - - - - -
31/05:00pm 10.7 WSW 21 33 997.1 - - - - - - - - -
31/04:30pm 10.6 W 20 30 996.6 - - - - - - - - -
31/04:04pm 10.9 W 20 31 996.5 - - - - - - - - -
31/04:00pm 11.0 W 21 31 996.3 - - - - - - - - -
31/03:32pm 11.5 W 22 36 995.9 - - - - - - - - -
31/03:30pm 11.5 W 21 31 996.0 - - - - - - - - -
31/03:03pm 11.2 W 15 28 995.5 - - - - - - - - -
31/03:00pm 10.7 W 14 21 995.7 - - - - - - - - -
31/02:30pm 9.1 WNW 23 34 995.9 - - - - - - - - -
31/02:25pm 8.5 WNW 23 30 995.8 - - - - - - - - -
31/02:22pm 6.9 W 34 48 995.5 - - - - - - - - -
31/02:00pm 11.2 W 22 38 995.0 - - - - - - - - -
31/01:30pm 10.9 W 21 38 994.6 - - - - - - - - -
31/01:00pm 11.3 W 21 33 995.1 - - - - - - - - -
31/12:30pm 9.8 W 29 52 994.8 - - - - - - - - -
31/12:26pm 10.4 W 24 52 994.9 - - - - - - - - -
31/12:00pm 9.7 W 21 36 995.2 - - - - - - - - -
31/11:30am 9.7 WSW 25 38 995.0 - - - - - - - - -
31/11:00am 9.6 W 23 35 994.9 - - - - - - - - -
31/10:30am 10.5 W 22 37 994.6 - - - - - - - - -
31/10:23am 10.4 W 22 37 994.2 - - - - - - - - -
31/10:16am 10.6 W 16 26 994.4 - - - - - - - - -
31/10:00am 10.6 WSW 15 24 994.1 - - - - - - - - -
31/09:33am 10.8 W 24 35 993.8 - - - - - - - - -
31/09:30am 13.4 W 23 30 993.5 - - - - - - - - -
31/09:29am 14.1 WNW 23 30 993.2 - - - - - - - - -
31/09:00am 14.1 NNW 29 42 991.9 - - - - - - - - -
31/08:30am 14.1 NNW 28 45 992.5 - - - - - - - - -
31/08:00am 13.8 NNW 26 38 993.2 - - - - - - - - -
31/07:30am 13.8 NNW 24 36 993.9 - - - - - - - - -
31/07:00am 13.5 NNW 24 34 994.5 - - - - - - - - -
31/06:30am 13.5 NNW 22 38 995.1 - - - - - - - - -
31/06:16am 13.4 NNW 20 30 995.2 - - - - - - - - -
31/06:00am 13.1 NNW 21 30 995.5 - - - - - - - - -
31/05:30am 12.8 NNW 20 34 996.2 - - - - - - - - -
31/05:00am 13.2 NNW 18 28 996.6 - - - - - - - - -
31/04:50am 13.4 NNW 18 28 996.8 - - - - - - - - -
31/04:30am 13.7 NNW 18 26 997.2 - - - - - - - - -
31/04:12am 13.9 NNW 20 30 997.3 - - - - - - - - -
31/04:00am 13.9 NNW 20 28 997.6 - - - - - - - - -
31/03:35am 13.8 NNW 20 30 998.1 - - - - - - - - -
31/03:30am 13.7 NNW 19 27 998.2 - - - - - - - - -
31/03:00am 13.8 NNW 17 28 999.2 - - - - - - - - -
31/02:53am 13.6 NNW 16 28 999.3 - - - - - - - - -
31/02:30am 13.8 NW 18 26 999.8 - - - - - - - - -
31/02:09am 14.4 NNW 18 29 999.9 - - - - - - - - -
31/02:00am 14.2 NNW 17 23 1000.2 - - - - - - - - -
31/01:32am 14.3 NNW 20 30 1000.4 - - - - - - - - -
31/01:30am 14.3 NNW 19 26 1000.4 - - - - - - - - -
31/01:12am 14.2 NNW 17 29 1000.8 - - - - - - - - -
31/01:00am 13.9 NNW 18 24 1001.0 - - - - - - - - -
31/12:30am 14.4 NNW 19 28 1001.5 - - - - - - - - -
31/12:00am 14.4 NNW 20 31 1002.2 - - - - - - - - -
 
Date/Time
CST
Temp

°C
Wind Pressure Rain
since 9am
mm
Weather Cloud Vis
km
Sea
Height
m
Swell
Dir
 
Speed
knots
Gust
knots
hPa Trend Height
m
Period
s
Dir
30/11:52pm 14.3 NNW 19 29 1002.3 - - - - - - - - -
30/11:30pm 14.4 NNW 20 29 1003.0 - - - - - - - - -
30/11:07pm 14.6 NNW 21 32 1003.1 - - - - - - - - -
30/11:00pm 14.6 NNW 20 29 1003.2 - - - - - - - - -
30/10:37pm 14.5 NW 19 30 1003.7 - - - - - - - - -
30/10:30pm 14.5 NW 19 27 1003.8 - - - - - - - - -
30/10:00pm 14.8 NW 17 28 1004.5 - - - - - - - - -
30/09:30pm 14.5 NW 19 29 1004.6 - - - - - - - - -
30/09:00pm 14.8 NW 19 29 1004.8 - - - - - - - - -
30/08:30pm 14.7 NW 20 33 1005.2 - - - - - - - - -
30/08:00pm 14.6 NNW 22 36 1005.3 - - - - - - - - -
30/07:30pm 14.9 NW 17 27 1005.8 - - - - - - - - -
30/07:00pm 14.7 NW 17 32 1005.9 - - - - - - - - -
30/06:46pm 14.7 NNW 16 26 1005.9 - - - - - - - - -
30/06:30pm 14.6 NW 14 22 1006.0 - - - - - - - - -
30/06:00pm 14.7 NW 16 23 1006.5 - - - - - - - - -
30/05:31pm 15.1 NW 15 26 1006.3 - - - - - - - - -
30/05:30pm 15.1 NW 14 25 1006.3 - - - - - - - - -
30/05:08pm 15.1 NW 15 25 1006.4 - - - - - - - - -
30/05:00pm 15.2 NW 16 24 1006.4 - - - - - - - - -
30/04:30pm 15.3 NW 16 27 1006.4 - - - - - - - - -
30/04:00pm 15.4 NW 19 32 1006.3 - - - - - - - - -
30/03:30pm 15.5 NW 18 29 1006.5 - - - - - - - - -
30/03:25pm 15.6 NW 17 28 1006.6 - - - - - - - - -
30/03:00pm 15.9 NW 20 28 1006.4 - - - - - - - - -
30/02:30pm 15.9 WNW 19 30 1006.6 - - - - - - - - -
30/02:00pm 15.8 WNW 22 33 1006.6 - - - - - - - - -
30/01:30pm 15.8 WNW 23 37 1006.8 - - - - - - - - -
30/01:00pm 15.9 WNW 21 33 1007.2 - - - - - - - - -
30/12:30pm 15.7 WNW 20 34 1007.6 - - - - - - - - -
30/12:00pm 15.6 WNW 19 35 1008.3 - - - - - - - - -
30/11:30am 15.4 WNW 20 31 1008.6 - - - - - - - - -
30/11:00am 14.2 WNW 23 37 1009.1 - - - - - - - - -
30/10:31am 15.4 WNW 16 31 1009.2 - - - - - - - - -
30/10:30am 15.4 WNW 16 25 1009.3 - - - - - - - - -
30/10:04am 15.2 WNW 17 27 1009.4 - - - - - - - - -
30/10:00am 15.0 NW 16 24 1009.4 - - - - - - - - -
30/09:33am 14.4 NW 15 27 1009.5 - - - - - - - - -
30/09:30am 14.2 NW 15 22 1009.5 - - - - - - - - -
30/09:00am 14.0 NW 15 22 1009.6 - - - - - - - - -
30/08:30am 13.9 NW 13 23 1009.7 - - - - - - - - -
30/08:00am 13.5 NW 14 20 1009.6 - - - - - - - - -
30/07:30am 13.1 NW 11 16 1009.5 - - - - - - - - -
30/07:00am 13.1 NW 13 20 1009.4 - - - - - - - - -
30/06:30am 13.1 NW 13 19 1009.2 - - - - - - - - -
30/06:00am 12.7 NNW 11 15 1009.0 - - - - - - - - -
30/05:30am 12.4 NNW 11 16 1009.0 - - - - - - - - -
30/05:00am 12.5 NNW 11 18 1009.1 - - - - - - - - -
30/04:30am 12.8 NNW 10 14 1009.3 - - - - - - - - -
30/04:00am 13.1 NW 9 14 1009.5 - - - - - - - - -
30/03:30am 13.4 NW 9 18 1009.5 - - - - - - - - -
30/03:00am 13.2 NW 11 15 1009.7 - - - - - - - - -
30/02:43am 13.4 WNW 15 27 1009.8 - - - - - - - - -
30/02:30am 14.0 W 12 18 1009.7 - - - - - - - - -
30/02:00am 14.0 WNW 12 18 1009.8 - - - - - - - - -
30/01:30am 13.8 W 14 22 1010.1 - - - - - - - - -
30/01:00am 14.2 W 14 21 1010.2 - - - - - - - - -
30/12:44am 14.3 W 15 25 1010.0 - - - - - - - - -
30/12:30am 14.1 W 13 20 1010.1 - - - - - - - - -
30/12:10am 14.2 W 15 25 1009.8 - - - - - - - - -
30/12:00am 14.2 W 14 22 1009.8 - - - - - - - - -
 
Date/Time
CST
Temp

°C
Wind Pressure Rain
since 9am
mm
Weather Cloud Vis
km
Sea
Height
m
Swell
Dir
 
Speed
knots
Gust
knots
hPa Trend Height
m
Period
s
Dir
29/11:40pm 14.3 W 15 30 1009.5 - - - - - - - - -
29/11:30pm 14.3 W 13 21 1009.6 - - - - - - - - -
29/11:00pm 14.3 W 12 23 1009.3 - - - - - - - - -
29/10:36pm 14.2 W 15 25 1009.2 - - - - - - - - -
29/10:30pm 14.2 W 14 22 1009.1 - - - - - - - - -
29/10:00pm 14.1 W 16 28 1009.0 - - - - - - - - -
29/09:30pm 14.2 W 15 29 1008.7 - - - - - - - - -
29/09:00pm 13.9 W 17 29 1008.5 - - - - - - - - -
29/08:31pm 13.6 WNW 17 31 1008.2 - - - - - - - - -
29/08:30pm 13.9 WNW 17 24 1008.4 - - - - - - - - -
29/08:09pm 14.8 W 16 26 1007.9 - - - - - - - - -
29/08:00pm 14.7 W 18 24 1007.8 - - - - - - - - -
29/07:30pm 14.7 W 20 31 1007.7 - - - - - - - - -
29/07:00pm 14.5 W 17 27 1007.4 - - - - - - - - -
29/06:42pm 14.6 W 15 27 1007.2 - - - - - - - - -
29/06:30pm 14.8 W 18 26 1007.2 - - - - - - - - -
29/06:17pm 14.6 W 17 27 1006.9 - - - - - - - - -
29/06:00pm 14.6 W 17 27 1006.9 - - - - - - - - -
29/05:30pm 14.0 W 19 31 1006.6 - - - - - - - - -
29/05:00pm 13.5 WNW 22 36 1006.4 - - - - - - - - -
29/04:30pm 15.2 WNW 24 36 1005.2 - - - - - - - - -
29/04:00pm 15.0 WNW 22 35 1005.1 - - - - - - - - -
29/03:30pm 14.8 W 17 30 1005.1 - - - - - - - - -
29/03:00pm 14.1 WNW 26 39 1004.9 - - - - - - - - -

Other Formats:

Comma delimited format used in spreadsheet applications
http://www.bom.gov.au/fwo/IDS60701/IDS60701.95826.axf

JavaScript Object Notation format (JSON) in row-major order
http://www.bom.gov.au/fwo/IDS60701/IDS60701.95826.json